Time;durP1;ratioP1;P1;durP2;ratioP2;P2;SDS_P1;SDS_P2;PMS_P1;PMS_P2;Temp;Humidity;BMP_temperature;BMP_pressure;BME280_temperature;BME280_humidity;BME280_pressure;Samples;Min_cycle;Max_cycle;Signal;HPM_P1;HPM_P2
2023/03/08 00:03:46;;;;;;;0.45;0.35;;;;;;;18.38;33.28;101479.03;21076108;28;20479;-68
2023/03/08 00:13:47;;;;;;;0.80;0.70;;;;;;;18.36;33.15;101503.38;21076283;28;20058;-67
2023/03/08 00:23:53;;;;;;;0.80;0.57;;;;;;;18.34;33.23;101529.66;21075394;28;20044;-66
2023/03/08 00:33:55;;;;;;;0.70;0.60;;;;;;;18.33;33.24;101528.00;21075414;28;20036;-69
2023/03/08 00:43:56;;;;;;;0.40;0.40;;;;;;;18.31;33.36;101561.47;21076323;28;20039;-67
2023/03/08 00:53:58;;;;;;;0.40;0.40;;;;;;;18.26;33.35;101562.22;21090781;28;20085;-68
2023/03/08 01:04:03;;;;;;;0.70;0.50;;;;;;;18.28;33.50;101582.22;21090703;28;20040;-67
2023/03/08 01:14:08;;;;;;;0.55;0.50;;;;;;;18.23;33.28;101609.78;21089589;28;20032;-66
2023/03/08 01:24:09;;;;;;;0.60;0.60;;;;;;;18.27;33.03;101641.47;21088207;28;20556;-68
2023/03/08 01:34:13;;;;;;;0.45;0.40;;;;;;;18.25;33.29;101654.72;21087982;28;20441;-68
2023/03/08 01:44:21;;;;;;;0.50;0.50;;;;;;;18.24;33.37;101678.00;21087012;28;20043;-67
2023/03/08 01:54:33;;;;;;;1.55;0.50;;;;;;;18.27;33.02;101696.03;21085724;28;20040;-67
2023/03/08 02:04:36;;;;;;;1.40;0.57;;;;;;;18.24;33.28;101697.38;21084618;28;20441;-66
2023/03/08 02:14:40;;;;;;;0.40;0.40;;;;;;;18.25;33.09;101726.75;21084023;28;20036;-67
2023/03/08 02:24:44;;;;;;;0.77;0.68;;;;;;;18.24;33.02;101747.25;21083068;28;20052;-68
2023/03/08 02:34:46;;;;;;;0.63;0.63;;;;;;;18.06;33.07;101716.94;21082386;28;20032;-68
2023/03/08 02:44:47;;;;;;;1.02;0.65;;;;;;;18.25;33.25;101771.09;21081467;28;20475;-68
2023/03/08 02:54:48;;;;;;;0.40;0.40;;;;;;;18.25;32.89;101765.56;21080921;28;20364;-66
2023/03/08 03:04:55;;;;;;;0.50;0.50;;;;;;;18.23;33.17;101766.88;21080243;28;20032;-67
2023/03/08 03:15:01;;;;;;;0.60;0.60;;;;;;;18.13;33.36;101767.47;21078108;28;20046;-67
2023/03/08 03:25:03;;;;;;;0.45;0.40;;;;;;;18.19;32.96;101794.25;21078518;28;20043;-67
2023/03/08 03:35:04;;;;;;;0.73;0.60;;;;;;;18.18;33.05;101788.91;21078281;28;20074;-67
2023/03/08 03:45:06;;;;;;;0.70;0.70;;;;;;;18.15;32.98;101770.88;21077193;28;20043;-67
2023/03/08 03:55:08;;;;;;;0.73;0.68;;;;;;;18.16;32.78;101778.09;21076681;28;20048;-67
2023/03/08 04:05:10;;;;;;;0.40;0.40;;;;;;;18.15;32.93;101781.94;21077002;28;20044;-67
2023/03/08 04:15:11;;;;;;;0.57;0.50;;;;;;;18.15;33.00;101792.19;21076101;28;20106;-69
2023/03/08 04:25:12;;;;;;;0.68;0.60;;;;;;;17.86;32.99;101735.81;21088316;28;20411;-67
2023/03/08 04:35:14;;;;;;;0.60;0.50;;;;;;;18.08;33.08;101763.75;21091109;28;20036;-68
2023/03/08 04:45:15;;;;;;;0.57;0.50;;;;;;;18.07;33.05;101757.38;21091989;28;20040;-68
2023/03/08 04:55:16;;;;;;;0.40;0.40;;;;;;;18.10;32.89;101779.06;21090719;28;20043;-67
2023/03/08 05:05:18;;;;;;;0.80;0.60;;;;;;;18.11;32.81;101802.06;21089665;28;20094;-67
2023/03/08 05:15:22;;;;;;;0.52;0.50;;;;;;;18.07;32.82;101795.31;21089515;28;20036;-67
2023/03/08 05:25:24;;;;;;;1.67;0.70;;;;;;;18.06;32.75;101808.31;21087772;28;20552;-66
2023/03/08 05:35:28;;;;;;;0.60;0.55;;;;;;;18.04;32.84;101824.31;21087269;28;20048;-66
2023/03/08 05:45:29;;;;;;;0.52;0.52;;;;;;;18.02;32.82;101815.44;21087262;28;20036;-66
2023/03/08 05:55:31;;;;;;;0.50;0.50;;;;;;;18.01;32.57;101808.22;21086335;28;20040;-66
2023/03/08 06:05:33;;;;;;;0.52;0.52;;;;;;;17.99;32.80;101818.66;21085285;28;20136;-67
2023/03/08 06:15:34;;;;;;;0.50;0.47;;;;;;;17.97;32.54;101834.69;21084570;28;20119;-66
2023/03/08 06:25:35;;;;;;;0.50;0.50;;;;;;;17.94;32.90;101833.22;21083478;28;20475;-67
2023/03/08 06:36:06;;;;;;;0.88;0.75;;;;;;;17.89;33.03;101838.66;21083238;28;20399;-68
2023/03/08 06:46:11;;;;;;;0.60;0.60;;;;;;;17.90;32.54;101839.50;21081345;28;20552;-66
2023/03/08 06:56:15;;;;;;;0.82;0.60;;;;;;;17.77;32.43;101819.25;21081447;28;20044;-66
2023/03/08 07:06:16;;;;;;;0.47;0.47;;;;;;;17.79;32.87;101832.88;21080794;28;20452;-67
2023/03/08 07:16:17;;;;;;;0.50;0.50;;;;;;;17.91;32.65;101852.25;21079987;28;20093;-67
2023/03/08 07:26:25;;;;;;;0.60;0.52;;;;;;;17.71;32.40;101835.94;21078882;28;20070;-67
2023/03/08 07:36:26;;;;;;;0.57;0.57;;;;;;;17.86;32.77;101857.66;21078761;28;20391;-67
2023/03/08 07:46:28;;;;;;;0.80;0.75;;;;;;;17.84;32.75;101868.13;21076473;28;20040;-67
2023/03/08 07:56:30;;;;;;;0.52;0.52;;;;;;;17.84;32.87;101879.22;21076148;28;20437;-67
2023/03/08 08:06:34;;;;;;;0.52;0.50;;;;;;;17.79;32.53;101888.22;21076422;28;20051;-67
2023/03/08 08:16:35;;;;;;;0.68;0.57;;;;;;;17.80;32.76;101889.06;21075962;28;20040;-66
2023/03/08 08:26:46;;;;;;;0.30;0.30;;;;;;;17.76;32.90;101905.31;21075660;28;20074;-67
2023/03/08 08:36:47;;;;;;;0.73;0.50;;;;;;;17.77;32.46;101902.28;21075283;28;20036;-67
2023/03/08 08:46:51;;;;;;;0.68;0.60;;;;;;;17.74;32.58;101902.78;21076056;28;20032;-67
2023/03/08 08:56:56;;;;;;;0.95;0.52;;;;;;;17.77;32.66;101909.75;21074950;28;20467;-68
2023/03/08 09:06:57;;;;;;;0.80;0.60;;;;;;;17.74;32.57;101922.16;21078885;28;20065;-67
2023/03/08 09:16:58;;;;;;;0.57;0.57;;;;;;;17.76;32.63;101920.00;21088489;28;20036;-67
2023/03/08 09:27:00;;;;;;;0.73;0.50;;;;;;;17.73;32.37;101942.63;21088759;28;20444;-67
2023/03/08 09:37:02;;;;;;;0.40;0.40;;;;;;;17.70;32.29;101933.91;21087571;28;20073;-67
2023/03/08 09:47:15;;;;;;;0.65;0.57;;;;;;;17.72;32.75;101954.72;21086817;28;20044;-66
2023/03/08 09:57:24;;;;;;;0.60;0.50;;;;;;;17.70;32.30;101945.81;21086354;28;20433;-66
2023/03/08 10:07:44;;;;;;;0.50;0.50;;;;;;;17.66;32.43;101944.59;21085381;28;20097;-67
2023/03/08 10:18:16;;;;;;;0.60;0.50;;;;;;;17.70;32.37;101964.38;21083425;28;20037;-67
2023/03/08 10:28:23;;;;;;;0.40;0.40;;;;;;;17.58;32.20;101952.38;21080718;28;20433;-67
2023/03/08 10:38:28;;;;;;;0.60;0.60;;;;;;;17.66;32.24;101961.22;21082811;28;20089;-66
2023/03/08 10:48:30;;;;;;;0.63;0.60;;;;;;;17.66;32.07;101988.03;21081991;28;20048;-67
2023/03/08 10:58:37;;;;;;;0.60;0.60;;;;;;;17.62;32.43;102001.50;21081293;28;20476;-66
2023/03/08 11:08:51;;;;;;;0.30;0.30;;;;;;;17.59;32.52;101996.41;21080487;28;20036;-67
2023/03/08 11:19:25;;;;;;;0.90;0.40;;;;;;;17.58;32.11;102024.34;21079491;28;20417;-67
2023/03/08 11:29:38;;;;;;;0.80;0.50;;;;;;;17.59;32.12;102026.03;21078821;28;20074;-67
2023/03/08 11:39:46;;;;;;;0.47;0.40;;;;;;;17.59;32.46;102035.16;21078115;28;20097;-67
2023/03/08 11:49:56;;;;;;;0.30;0.30;;;;;;;17.60;32.18;102045.19;21077267;28;20395;-67
2023/03/08 12:00:11;;;;;;;0.50;0.43;;;;;;;17.47;32.50;102051.72;21076901;28;20047;-66
2023/03/08 12:10:20;;;;;;;0.40;0.40;;;;;;;17.51;32.63;102083.41;21076460;28;20296;-66
2023/03/08 12:20:22;;;;;;;0.43;0.43;;;;;;;17.49;32.19;102096.59;21076115;28;20040;-66
2023/03/08 12:30:30;;;;;;;0.50;0.50;;;;;;;17.45;32.71;102116.66;21075438;28;20487;-67
2023/03/08 12:40:48;;;;;;;0.75;0.50;;;;;;;17.40;32.62;102133.09;21078019;28;20032;-67
2023/03/08 12:50:58;;;;;;;0.43;0.43;;;;;;;17.40;32.57;102133.94;21091382;28;20036;-67
2023/03/08 13:01:00;;;;;;;;;;;;;;;17.41;32.77;102151.41;21091546;28;20032;-66
2023/03/08 13:11:08;;;;;;;0.32;0.32;;;;;;;17.44;32.52;102168.41;21089850;28;19912;-67
2023/03/08 13:21:34;;;;;;;0.65;0.40;;;;;;;17.35;32.43;102185.53;21089233;28;20052;-66
2023/03/08 13:31:36;;;;;;;0.55;0.47;;;;;;;17.39;32.50;102186.75;21088056;28;20044;-67
2023/03/08 13:41:40;;;;;;;0.60;0.60;;;;;;;17.19;32.40;102170.34;21087289;28;20044;-66
2023/03/08 13:51:43;;;;;;;0.50;0.40;;;;;;;17.35;32.59;102182.75;21084739;28;20044;-66
2023/03/08 14:01:50;;;;;;;0.50;0.50;;;;;;;17.31;32.91;102195.34;21085870;28;20036;-68
2023/03/08 14:12:03;;;;;;;0.57;0.50;;;;;;;17.32;32.58;102185.97;21084847;28;20040;-66
2023/03/08 14:22:17;;;;;;;0.20;0.20;;;;;;;17.38;32.73;102202.53;21083820;28;20336;-68
2023/03/08 14:32:34;;;;;;;0.45;0.40;;;;;;;17.40;32.44;102166.31;21083551;28;20105;-67
2023/03/08 14:42:51;;;;;;;0.40;0.30;;;;;;;17.57;32.46;102172.97;21081142;28;20580;-67
2023/03/08 14:52:58;;;;;;;0.73;0.40;;;;;;;17.67;31.95;102181.56;21076095;28;20055;-67
2023/03/08 15:03:03;;;;;;;0.43;0.40;;;;;;;17.73;32.13;102153.03;21080704;28;20036;-67
2023/03/08 15:13:10;;;;;;;0.40;0.40;;;;;;;17.81;31.86;102139.94;21080013;28;20050;-67
2023/03/08 15:23:27;;;;;;;0.50;0.40;;;;;;;17.86;32.36;102143.69;21078877;28;20036;-67
2023/03/08 15:33:34;;;;;;;0.45;0.40;;;;;;;17.97;32.09;102133.78;21078737;28;20035;-67
2023/03/08 15:43:35;;;;;;;0.65;0.30;;;;;;;18.03;32.21;102142.00;21077826;28;20541;-67
2023/03/08 15:53:39;;;;;;;0.63;0.30;;;;;;;18.09;32.11;102145.75;21077156;28;20040;-66
2023/03/08 16:03:41;;;;;;;1.40;0.50;;;;;;;18.15;32.15;102164.25;21077077;28;20040;-67
2023/03/08 16:13:42;;;;;;;0.43;0.43;;;;;;;18.17;32.22;102153.75;21075270;28;20040;-65
2023/03/08 16:23:43;;;;;;;0.30;0.30;;;;;;;18.14;31.89;102123.75;21075137;28;20036;-68
2023/03/08 16:33:45;;;;;;;0.65;0.40;;;;;;;18.26;32.07;102149.59;21075123;28;20044;-66
2023/03/08 16:43:49;;;;;;;0.30;0.30;;;;;;;18.28;31.93;102125.28;21075480;28;20040;-66
2023/03/08 16:53:53;;;;;;;0.45;0.40;;;;;;;18.32;32.19;102130.34;21074305;28;20044;-66
2023/03/08 17:03:58;;;;;;;0.40;0.40;;;;;;;18.35;31.95;102144.56;21074156;28;20036;-68
2023/03/08 17:14:03;;;;;;;0.35;0.35;;;;;;;18.37;32.17;102123.03;21073841;28;20040;-67
2023/03/08 17:24:06;;;;;;;0.88;0.38;;;;;;;18.38;31.86;102112.78;21074248;28;20040;-67
2023/03/08 17:34:08;;;;;;;0.38;0.38;;;;;;;18.25;32.29;102062.00;21087176;28;20051;-67
2023/03/08 17:44:10;;;;;;;0.40;0.40;;;;;;;18.42;32.18;102069.66;21086996;28;20036;-66
2023/03/08 17:54:11;;;;;;;0.45;0.45;;;;;;;18.45;32.09;102063.63;21085337;28;20035;-66
2023/03/08 18:04:12;;;;;;;0.30;0.30;;;;;;;18.47;32.08;102047.63;21085539;28;20036;-66
2023/03/08 18:14:14;;;;;;;0.45;0.40;;;;;;;18.48;31.82;102007.72;21083019;28;20044;-68
2023/03/08 18:24:15;;;;;;;0.60;0.35;;;;;;;18.48;32.05;102003.03;21080897;28;20073;-67
2023/03/08 18:34:17;;;;;;;0.80;0.57;;;;;;;18.44;32.02;101987.13;21083117;28;20059;-66
2023/03/08 18:44:18;;;;;;;0.30;0.22;;;;;;;18.43;31.93;101966.03;21081428;28;20047;-67
2023/03/08 18:54:19;;;;;;;0.57;0.30;;;;;;;18.50;32.16;101969.50;21081382;28;20040;-67
2023/03/08 19:04:27;;;;;;;0.52;0.43;;;;;;;18.49;32.02;101979.75;21080420;28;20101;-67
2023/03/08 19:14:28;;;;;;;0.55;0.40;;;;;;;18.33;32.29;101927.00;21079743;28;20036;-67
2023/03/08 19:24:30;;;;;;;0.40;0.40;;;;;;;18.48;32.10;101969.75;21078899;28;20040;-67
2023/03/08 19:34:36;;;;;;;0.50;0.50;;;;;;;18.47;31.82;101959.78;21079597;28;20456;-67
2023/03/08 19:44:37;;;;;;;0.47;0.40;;;;;;;18.54;32.11;101973.50;21078138;28;20047;-67
2023/03/08 19:54:40;;;;;;;0.50;0.38;;;;;;;18.52;31.78;101981.22;21077226;28;20410;-67
2023/03/08 20:04:42;;;;;;;0.40;0.40;;;;;;;18.54;31.92;101987.34;21076381;28;20403;-66
2023/03/08 20:14:44;;;;;;;0.50;0.50;;;;;;;18.49;32.01;101970.59;21076067;28;20048;-67
2023/03/08 20:24:48;;;;;;;0.30;0.30;;;;;;;18.52;31.92;101995.09;21075160;28;20429;-67
2023/03/08 20:34:52;;;;;;;0.43;0.43;;;;;;;18.52;32.20;101997.84;21075171;28;20090;-66
2023/03/08 20:44:53;;;;;;;0.60;0.45;;;;;;;18.50;31.93;101994.47;21075068;28;20136;-66
2023/03/08 20:54:55;;;;;;;0.52;0.43;;;;;;;18.50;32.09;101991.69;21074092;28;20047;-67
2023/03/08 21:04:59;;;;;;;0.30;0.30;;;;;;;18.50;32.02;102008.31;21082921;28;20021;-68
2023/03/08 21:15:03;;;;;;;0.40;0.40;;;;;;;18.45;31.88;101997.09;21089798;28;20043;-66
2023/03/08 21:25:05;;;;;;;0.55;0.20;;;;;;;18.38;32.26;101990.84;21088286;28;20074;-67
2023/03/08 21:35:07;;;;;;;0.50;0.50;;;;;;;18.56;32.06;102026.78;21088551;28;20078;-67
2023/03/08 21:45:09;;;;;;;0.57;0.40;;;;;;;18.57;32.11;102049.81;21087435;28;20399;-68
2023/03/08 21:55:13;;;;;;;0.75;0.52;;;;;;;18.54;32.16;102046.41;21086771;28;20036;-66
2023/03/08 22:05:15;;;;;;;0.45;0.45;;;;;;;18.43;32.15;102051.94;21086912;28;20032;-66
2023/03/08 22:15:16;;;;;;;0.60;0.50;;;;;;;18.51;31.97;102082.09;21083862;28;20446;-67
2023/03/08 22:25:20;;;;;;;1.10;0.43;;;;;;;18.50;32.06;102092.31;21084331;28;20101;-67
2023/03/08 22:35:22;;;;;;;0.30;0.30;;;;;;;18.47;32.31;102103.06;21083659;28;20048;-67
2023/03/08 22:45:25;;;;;;;0.40;0.30;;;;;;;18.47;32.22;102101.13;21082665;28;20040;-67
2023/03/08 22:55:26;;;;;;;0.40;0.40;;;;;;;18.46;31.95;102115.19;21082137;28;20391;-67
2023/03/08 23:05:28;;;;;;;0.40;0.40;;;;;;;18.43;32.21;102110.16;21080920;28;20089;-67
2023/03/08 23:15:29;;;;;;;0.47;0.40;;;;;;;18.40;32.27;102105.91;21080487;28;20036;-67
2023/03/08 23:25:30;;;;;;;0.40;0.40;;;;;;;18.37;32.41;102111.94;21079444;28;20106;-67
2023/03/08 23:35:32;;;;;;;0.40;0.30;;;;;;;18.37;32.34;102111.94;21079172;28;20044;-67
2023/03/08 23:45:37;;;;;;;0.43;0.40;;;;;;;18.31;32.44;102118.41;21077848;28;20047;-66
2023/03/08 23:55:42;;;;;;;0.40;0.40;;;;;;;18.27;32.15;102122.72;21077753;28;20040;-67
